Time;durP1;ratioP1;P1;durP2;ratioP2;P2;SDS_P1;SDS_P2;PMS_P1;PMS_P2;Temp;Humidity;BMP_temperature;BMP_pressure;BME280_temperature;BME280_humidity;BME280_pressure;Samples;Min_cycle;Max_cycle;Signal;HPM_P1;HPM_P2
2022/03/21 00:00:39;;;;;;;27.90;10.55;;;;;;;0.27;50.68;98738.22;5004164;28;20111;-62
2022/03/21 00:03:07;;;;;;;35.20;11.93;;;;;;;0.33;51.38;98742.66;5003820;28;20045;-62
2022/03/21 00:05:34;;;;;;;24.17;9.77;;;;;;;0.36;50.79;98731.22;5002103;28;20057;-62
2022/03/21 00:08:02;;;;;;;31.38;10.80;;;;;;;0.40;50.95;98743.22;5002510;28;20061;-61
2022/03/21 00:10:36;;;;;;;23.63;10.13;;;;;;;0.54;50.70;98733.47;5003845;28;20132;-62
2022/03/21 00:13:03;;;;;;;23.80;9.50;;;;;;;0.12;48.68;98614.72;5002011;28;20053;-56
2022/03/21 00:15:32;;;;;;;22.10;9.32;;;;;;;1.01;48.20;98722.50;5013364;28;20047;-63
2022/03/21 00:18:01;;;;;;;21.42;8.77;;;;;;;1.13;47.30;98729.38;5027804;28;20103;-62
2022/03/21 00:20:29;;;;;;;22.20;9.32;;;;;;;1.35;46.00;98723.69;5026099;28;20567;-62
2022/03/21 00:22:57;;;;;;;19.20;8.38;;;;;;;1.52;45.89;98725.09;5027224;28;20063;-56
2022/03/21 00:25:24;;;;;;;19.38;8.57;;;;;;;1.66;45.36;98724.56;5027415;28;20053;-61
2022/03/21 00:27:54;;;;;;;19.08;7.05;;;;;;;1.65;43.87;98684.66;5025612;28;20587;-62
2022/03/21 00:30:21;;;;;;;19.80;8.10;;;;;;;2.05;43.13;98709.25;5027597;28;20077;-57
2022/03/21 00:32:48;;;;;;;20.80;8.98;;;;;;;2.08;43.46;98711.44;5027065;28;20686;-62
2022/03/21 00:35:15;;;;;;;15.65;7.30;;;;;;;2.07;44.28;98709.81;5027500;28;20053;-62
2022/03/21 00:37:44;;;;;;;19.45;8.27;;;;;;;2.06;44.02;98706.25;5026108;28;20058;-55
2022/03/21 00:40:13;;;;;;;19.90;8.18;;;;;;;-0.45;43.50;98313.38;5027305;28;20049;-62
2022/03/21 00:42:41;;;;;;;17.42;7.50;;;;;;;2.42;42.01;98712.47;5025734;28;20053;-62
2022/03/21 00:45:12;;;;;;;25.25;9.05;;;;;;;2.46;42.18;98702.63;5027137;28;20049;-55
2022/03/21 00:47:39;;;;;;;24.58;9.85;;;;;;;2.47;42.83;98698.78;5027065;28;20056;-62
2022/03/21 00:50:08;;;;;;;27.30;10.45;;;;;;;2.36;43.58;98702.63;5026868;28;20058;-58
2022/03/21 00:52:48;;;;;;;31.90;11.77;;;;;;;2.27;43.88;98709.75;5026668;28;20475;-56
2022/03/21 00:55:17;;;;;;;30.60;12.13;;;;;;;2.25;44.30;98687.34;5026760;28;20517;-55
2022/03/21 00:57:44;;;;;;;26.83;11.45;;;;;;;1.95;43.67;98662.78;5027152;28;20057;-58
2022/03/21 01:00:17;;;;;;;24.05;11.63;;;;;;;1.68;44.16;98634.97;5026675;28;20058;-62
2022/03/21 01:02:44;;;;;;;21.73;10.05;;;;;;;2.11;44.38;98699.94;5026527;28;20496;-58
2022/03/21 01:05:12;;;;;;;174.38;50.88;;;;;;;1.98;45.80;98695.84;5026571;28;20056;-62
2022/03/21 01:07:40;;;;;;;45.55;17.42;;;;;;;2.03;46.19;98697.75;5026540;28;20053;-56
2022/03/21 01:10:09;;;;;;;32.83;12.73;;;;;;;1.88;47.28;98681.41;5026676;28;20154;-56
2022/03/21 01:12:36;;;;;;;35.30;14.30;;;;;;;1.40;47.75;98642.63;5025276;28;20057;-57
2022/03/21 01:15:05;;;;;;;34.20;14.98;;;;;;;1.81;48.52;98705.44;5023032;28;20062;-57
2022/03/21 01:17:32;;;;;;;28.80;11.80;;;;;;;1.55;48.42;98694.50;5006746;28;20061;-62
2022/03/21 01:19:59;;;;;;;27.30;11.10;;;;;;;1.52;48.14;98692.31;5007033;28;20160;-56
2022/03/21 01:22:26;;;;;;;22.98;10.60;;;;;;;1.48;47.75;98683.03;5006724;28;20068;-62
2022/03/21 01:24:53;;;;;;;26.02;11.05;;;;;;;1.44;46.39;98701.03;5006409;28;20065;-62
2022/03/21 01:27:21;;;;;;;24.50;10.05;;;;;;;1.62;45.53;98702.44;5004749;28;20056;-62
2022/03/21 01:29:48;;;;;;;30.02;9.65;;;;;;;1.43;44.44;98639.34;5006575;28;20446;-62
2022/03/21 01:32:15;;;;;;;22.58;9.02;;;;;;;1.94;43.83;98691.22;5004952;28;20069;-59
2022/03/21 01:34:42;;;;;;;25.50;8.68;;;;;;;2.16;42.66;98692.56;5006263;28;20054;-62
2022/03/21 01:37:09;;;;;;;15.27;5.80;;;;;;;2.13;41.57;98670.44;5006389;28;20101;-62
2022/03/21 01:39:35;;;;;;;20.00;8.35;;;;;;;2.52;41.40;98658.56;5006537;28;20061;-62
2022/03/21 01:42:02;;;;;;;22.75;9.73;;;;;;;1.76;41.31;98547.00;5006608;28;20057;-55
2022/03/21 01:44:29;;;;;;;22.65;9.38;;;;;;;2.01;41.52;98582.47;5004708;28;20053;-61
2022/03/21 01:46:56;;;;;;;27.85;9.80;;;;;;;2.54;41.58;98655.53;5005861;28;20054;-62
2022/03/21 01:49:24;;;;;;;25.20;10.90;;;;;;;2.50;41.83;98671.69;5004418;28;20060;-62
2022/03/21 01:51:51;;;;;;;22.42;9.48;;;;;;;2.47;41.17;98633.13;5005750;28;20430;-55
2022/03/21 01:57:04;;;;;;;22.88;9.85;;;;;;;2.28;42.41;98646.59;5005616;28;20045;-62
2022/03/21 01:59:32;;;;;;;28.40;8.13;;;;;;;1.79;42.06;98631.16;5004360;28;20054;-56
2022/03/21 02:01:59;;;;;;;22.35;9.55;;;;;;;2.27;42.15;98644.97;5005586;28;20050;-61
2022/03/21 02:04:26;;;;;;;25.10;9.82;;;;;;;2.03;41.71;98610.31;5020957;28;20080;-56
2022/03/21 02:06:53;;;;;;;26.20;8.88;;;;;;;1.77;40.94;98559.56;5006322;28;20148;-59
2022/03/21 02:09:19;;;;;;;20.48;8.90;;;;;;;2.44;40.78;98650.09;5004622;28;20068;-55
2022/03/21 02:11:46;;;;;;;16.42;8.02;;;;;;;2.52;40.79;98655.84;5005449;28;20075;-56
2022/03/21 02:14:13;;;;;;;20.23;8.38;;;;;;;-0.62;40.36;98135.97;5005937;28;20053;-62
2022/03/21 02:16:40;;;;;;;19.70;9.20;;;;;;;2.66;41.00;98669.72;5020032;28;20072;-57
2022/03/21 02:19:21;;;;;;;18.30;8.73;;;;;;;2.57;41.14;98646.78;5025396;28;20515;-61
2022/03/21 02:21:57;;;;;;;17.52;8.27;;;;;;;2.56;41.38;98659.63;5023906;28;20440;-55
2022/03/21 02:24:36;;;;;;;19.33;8.63;;;;;;;2.46;41.14;98662.41;5025326;28;20085;-62
2022/03/21 02:27:03;;;;;;;21.08;8.52;;;;;;;1.62;41.26;98544.03;5025361;28;20057;-62
2022/03/21 02:29:30;;;;;;;17.95;8.50;;;;;;;1.76;41.15;98560.66;5023575;28;20443;-56
2022/03/21 02:31:57;;;;;;;26.80;10.13;;;;;;;1.53;41.74;98540.25;5024398;28;20199;-62
2022/03/21 02:34:27;;;;;;;26.50;10.25;;;;;;;2.07;40.98;98639.53;5024643;28;20524;-56
2022/03/21 02:36:59;;;;;;;18.48;8.65;;;;;;;2.09;41.07;98631.91;5023879;28;20045;-62
2022/03/21 02:39:28;;;;;;;19.65;8.25;;;;;;;2.24;41.51;98663.84;5025178;28;20879;-55
2022/03/21 02:41:54;;;;;;;22.92;9.25;;;;;;;2.20;41.41;98665.47;5024884;28;20053;-62
2022/03/21 02:44:21;;;;;;;28.70;10.02;;;;;;;2.21;41.53;98661.66;5025159;28;20427;-62
2022/03/21 02:46:48;;;;;;;17.98;8.60;;;;;;;1.78;41.49;98613.09;5024880;28;20045;-62
2022/03/21 02:49:15;;;;;;;20.90;9.32;;;;;;;2.15;41.81;98668.25;5024220;28;20049;-62
2022/03/21 02:51:43;;;;;;;28.92;9.93;;;;;;;2.13;41.49;98665.78;5022923;28;20049;-57
2022/03/21 02:54:11;;;;;;;23.00;10.10;;;;;;;2.00;42.66;98674.56;5024714;28;20402;-62
2022/03/21 02:56:37;;;;;;;25.50;10.70;;;;;;;1.60;42.70;98627.34;5024352;28;20049;-57
2022/03/21 02:59:04;;;;;;;38.85;18.27;;;;;;;1.92;42.54;98663.34;5024288;28;20075;-56
2022/03/21 03:01:31;;;;;;;36.90;16.13;;;;;;;1.94;43.63;98667.47;5024668;28;20554;-62
2022/03/21 03:03:58;;;;;;;29.15;12.38;;;;;;;1.74;43.50;98672.13;5024503;28;20053;-58
2022/03/21 03:06:24;;;;;;;30.98;13.20;;;;;;;1.43;44.97;98674.84;5024073;28;20053;-62
2022/03/21 03:08:51;;;;;;;32.65;13.40;;;;;;;1.42;43.67;98672.38;5023924;28;20516;-62
2022/03/21 03:11:18;;;;;;;30.77;12.45;;;;;;;1.52;43.94;98667.75;5023804;28;20515;-56
2022/03/21 03:13:44;;;;;;;27.08;11.77;;;;;;;1.47;44.26;98665.00;5023777;28;20053;-59
2022/03/21 03:16:11;;;;;;;22.77;10.98;;;;;;;1.40;43.96;98678.13;5019164;28;20064;-62
2022/03/21 03:18:38;;;;;;;26.85;11.15;;;;;;;1.36;44.75;98670.72;5002910;28;20095;-62
2022/03/21 03:21:05;;;;;;;28.92;11.50;;;;;;;1.38;45.55;98674.84;5004500;28;20050;-56
2022/03/21 03:23:32;;;;;;;25.63;11.70;;;;;;;1.27;44.62;98673.19;5003093;28;20054;-62
2022/03/21 03:26:01;;;;;;;29.48;11.82;;;;;;;0.45;44.85;98581.59;5002774;28;20504;-62
2022/03/21 03:28:29;;;;;;;24.90;10.88;;;;;;;1.22;45.75;98685.97;5004229;28;20060;-58
2022/03/21 03:31:13;;;;;;;22.38;11.20;;;;;;;0.93;44.80;98658.38;5004151;28;20045;-57
2022/03/21 03:33:41;;;;;;;36.63;11.98;;;;;;;1.10;45.24;98672.63;5004135;28;20153;-62
2022/03/21 03:36:08;;;;;;;27.98;11.85;;;;;;;1.10;45.01;98666.31;5004213;28;20231;-62
2022/03/21 03:38:35;;;;;;;27.35;11.23;;;;;;;1.18;45.22;98663.91;5004787;28;20049;-62
2022/03/21 03:41:02;;;;;;;37.42;12.02;;;;;;;0.72;45.83;98604.88;5004146;28;20046;-62
2022/03/21 03:43:29;;;;;;;38.15;15.20;;;;;;;1.00;46.42;98678.03;5004142;28;20049;-62
2022/03/21 03:45:57;;;;;;;23.75;11.10;;;;;;;0.33;45.98;98589.22;5004071;28;20060;-62
2022/03/21 03:48:25;;;;;;;31.63;12.75;;;;;;;1.01;47.26;98663.28;5003073;28;20054;-55
2022/03/21 03:50:52;;;;;;;32.50;13.07;;;;;;;0.53;46.45;98608.34;5004292;28;20053;-55
2022/03/21 03:53:18;;;;;;;36.10;12.93;;;;;;;-0.11;47.75;98496.13;5004320;28;20097;-59
2022/03/21 03:55:45;;;;;;;52.90;20.15;;;;;;;0.59;48.72;98649.00;5004483;28;20057;-55
2022/03/21 03:58:12;;;;;;;74.40;30.40;;;;;;;0.75;48.44;98664.31;5004117;28;20050;-62
2022/03/21 04:00:38;;;;;;;83.50;34.30;;;;;;;0.25;49.53;98620.53;5004344;28;20049;-56
2022/03/21 04:06:07;;;;;;;32.13;14.65;;;;;;;0.31;50.30;98663.06;5001071;28;20094;-62
2022/03/21 04:08:34;;;;;;;25.52;11.52;;;;;;;0.25;49.84;98658.66;5001815;28;20046;-62
2022/03/21 04:11:01;;;;;;;23.17;10.32;;;;;;;0.16;50.23;98671.13;5003920;28;20139;-62
2022/03/21 04:13:28;;;;;;;25.67;10.25;;;;;;;-0.01;50.06;98643.25;5002422;28;20057;-62
2022/03/21 04:15:54;;;;;;;26.15;9.30;;;;;;;-0.72;51.27;98564.91;5004050;28;20072;-62
2022/03/21 04:18:21;;;;;;;23.10;9.95;;;;;;;-0.11;51.17;98664.97;5003700;28;20049;-55
2022/03/21 04:21:08;;;;;;;27.88;10.95;;;;;;;-0.13;51.78;98667.94;5003475;28;20054;-57
2022/03/21 04:23:35;;;;;;;26.13;11.38;;;;;;;-0.28;51.53;98669.75;5003625;28;20053;-56
2022/03/21 04:26:02;;;;;;;41.20;13.75;;;;;;;-1.27;51.96;98518.25;5003289;28;20056;-62
2022/03/21 04:28:29;;;;;;;24.67;10.65;;;;;;;-0.24;52.26;98671.69;5003891;28;20054;-62
2022/03/21 04:30:55;;;;;;;26.42;10.82;;;;;;;-0.45;52.50;98675.34;5003423;28;20050;-56
2022/03/21 04:33:22;;;;;;;23.55;9.90;;;;;;;-0.50;51.99;98680.75;5003505;28;20053;-56
2022/03/21 04:35:49;;;;;;;48.50;16.73;;;;;;;-0.40;52.55;98671.84;5003975;28;20058;-62
2022/03/21 04:38:17;;;;;;;40.40;15.48;;;;;;;-0.45;51.51;98669.91;5002575;28;20310;-55
2022/03/21 04:40:47;;;;;;;38.15;15.23;;;;;;;-0.66;52.11;98650.94;5003550;28;20899;-62
2022/03/21 04:43:16;;;;;;;52.35;21.65;;;;;;;-0.36;51.67;98668.34;5003803;28;20049;-56
2022/03/21 04:45:46;;;;;;;59.72;23.63;;;;;;;-0.30;51.89;98671.94;5003054;28;20513;-57
2022/03/21 04:48:14;;;;;;;47.42;17.85;;;;;;;-0.20;51.86;98678.25;5003737;28;20379;-56
2022/03/21 04:50:41;;;;;;;32.53;14.68;;;;;;;-0.26;51.94;98678.50;5003409;28;20049;-62
2022/03/21 04:53:10;;;;;;;40.80;14.95;;;;;;;-0.12;52.05;98680.50;5002041;28;20061;-55
2022/03/21 04:55:40;;;;;;;56.40;17.85;;;;;;;-0.17;52.17;98677.75;5003774;28;20468;-62
2022/03/21 04:58:08;;;;;;;38.88;14.63;;;;;;;-0.13;52.27;98678.84;5003703;28;20046;-57
2022/03/21 05:00:35;;;;;;;25.10;11.27;;;;;;;-0.16;52.14;98681.28;5005448;28;20448;-56
2022/03/21 05:03:07;;;;;;;43.30;16.70;;;;;;;-0.03;52.38;98694.44;5005535;28;20120;-55
2022/03/21 05:05:42;;;;;;;35.83;16.02;;;;;;;-0.24;51.76;98627.31;5006816;28;20058;-59
2022/03/21 05:08:09;;;;;;;51.20;19.25;;;;;;;0.23;51.26;98688.06;5006950;28;20057;-56
2022/03/21 05:10:36;;;;;;;59.63;21.63;;;;;;;0.39;51.69;98681.63;5007076;28;20406;-59
2022/03/21 05:13:04;;;;;;;49.67;21.58;;;;;;;0.00;51.42;98614.94;5006564;28;20615;-62
2022/03/21 05:15:31;;;;;;;50.15;16.35;;;;;;;0.05;51.59;98616.88;5007103;28;20428;-62
2022/03/21 05:17:58;;;;;;;39.72;16.38;;;;;;;0.35;51.38;98674.25;5006329;28;20062;-55
2022/03/21 05:20:25;;;;;;;55.30;21.67;;;;;;;0.37;51.29;98689.25;5006133;28;20523;-56
2022/03/21 05:31:10;;;;;;;44.80;17.35;;;;;;;0.74;51.68;98679.06;5006322;28;20050;-62
2022/03/21 05:36:26;;;;;;;41.53;18.02;;;;;;;1.21;50.58;98693.38;5006092;28;20052;-62
2022/03/21 05:38:54;;;;;;;43.60;18.85;;;;;;;1.29;50.68;98687.38;5006640;28;20115;-56
2022/03/21 05:41:21;;;;;;;71.30;25.10;;;;;;;1.39;50.54;98671.00;5006502;28;20055;-63
2022/03/21 05:43:49;;;;;;;93.65;32.10;;;;;;;1.72;51.20;98690.69;5006330;28;20062;-62
2022/03/21 05:46:17;;;;;;;68.45;30.27;;;;;;;1.75;50.68;98701.91;5005985;28;20080;-62
2022/03/21 05:49:02;;;;;;;71.53;30.08;;;;;;;1.99;49.44;98683.03;5006115;28;20053;-58
2022/03/21 05:51:32;;;;;;;72.50;29.05;;;;;;;2.31;48.30;98680.78;5006040;28;20184;-62
2022/03/21 05:54:13;;;;;;;60.85;25.75;;;;;;;2.58;48.13;98678.50;5005958;28;20136;-55
2022/03/21 05:56:43;;;;;;;56.95;23.58;;;;;;;2.58;46.98;98667.56;5005640;28;20056;-62
2022/03/21 06:01:55;;;;;;;61.28;27.83;;;;;;;3.10;46.28;98665.13;5005903;28;20050;-62
2022/03/21 06:04:23;;;;;;;58.25;25.25;;;;;;;3.27;45.20;98654.63;5005947;28;20065;-58
2022/03/21 06:06:50;;;;;;;48.13;20.85;;;;;;;3.60;44.52;98659.31;5005606;28;20054;-60
2022/03/21 06:09:17;;;;;;;35.63;15.98;;;;;;;3.76;43.81;98682.72;5020304;28;20489;-55
2022/03/21 06:11:48;;;;;;;28.98;10.60;;;;;;;3.95;42.67;98677.38;5004330;28;20056;-60
2022/03/21 06:14:18;;;;;;;29.67;13.57;;;;;;;3.89;43.01;98671.09;5005243;28;20132;-60
2022/03/21 06:16:45;;;;;;;29.70;10.95;;;;;;;4.15;41.25;98678.00;5004274;28;20045;-55
2022/03/21 06:19:12;;;;;;;37.08;15.48;;;;;;;4.22;42.08;98645.56;5005267;28;20072;-56
2022/03/21 06:21:39;;;;;;;30.67;12.73;;;;;;;4.18;41.17;98619.84;5005621;28;20559;-62
2022/03/21 06:24:08;;;;;;;22.10;10.50;;;;;;;4.09;40.52;98585.94;5006005;28;20153;-57
2022/03/21 06:26:34;;;;;;;22.13;10.77;;;;;;;4.76;40.12;98677.34;5005587;28;20050;-55
2022/03/21 06:29:01;;;;;;;20.15;8.70;;;;;;;4.60;38.77;98625.38;5008178;28;20046;-61
2022/03/21 06:31:28;;;;;;;18.20;8.00;;;;;;;4.88;38.63;98636.56;5015207;28;20500;-56
2022/03/21 06:33:55;;;;;;;17.33;8.05;;;;;;;4.69;39.04;98656.53;5014704;28;20504;-62
2022/03/21 06:36:21;;;;;;;8.48;3.85;;;;;;;2.07;39.23;98281.56;5011377;28;20068;-67
2022/03/21 06:38:48;;;;;;;14.18;6.80;;;;;;;4.56;38.79;98632.56;5004830;28;20049;-67
2022/03/21 06:41:15;;;;;;;12.18;5.70;;;;;;;4.85;38.64;98672.84;5004365;28;20054;-63
2022/03/21 06:43:42;;;;;;;8.23;3.35;;;;;;;4.55;37.71;98672.06;5011773;28;20058;-60
2022/03/21 06:46:09;;;;;;;11.45;4.25;;;;;;;4.41;38.39;98675.84;5018914;28;20045;-60
2022/03/21 06:48:36;;;;;;;12.43;4.95;;;;;;;4.65;38.85;98682.13;5012551;28;20053;-62
2022/03/21 06:51:03;;;;;;;10.23;5.05;;;;;;;4.74;37.60;98674.91;5002584;28;20057;-66
2022/03/21 06:53:29;;;;;;;9.55;4.30;;;;;;;4.60;38.43;98680.25;5004139;28;20053;-60
2022/03/21 06:55:56;;;;;;;20.35;4.35;;;;;;;4.63;38.39;98682.41;5003936;28;20509;-60
2022/03/21 06:58:23;;;;;;;17.27;6.78;;;;;;;4.64;38.04;98650.31;5004138;28;20538;-54
2022/03/21 07:00:49;;;;;;;9.90;4.70;;;;;;;4.63;37.54;98674.19;5021702;28;20558;-63
2022/03/21 07:03:17;;;;;;;10.38;4.32;;;;;;;4.80;37.57;98667.41;5023548;28;20539;-64
2022/03/21 07:05:44;;;;;;;11.82;5.88;;;;;;;5.04;37.67;98684.69;5022683;28;20101;-55
2022/03/21 07:08:12;;;;;;;14.32;5.57;;;;;;;3.49;36.76;98449.56;5024123;28;20073;-56
2022/03/21 07:10:40;;;;;;;10.55;4.18;;;;;;;4.39;37.19;98613.00;5017235;28;20214;-55
2022/03/21 07:13:07;;;;;;;19.35;7.40;;;;;;;4.57;37.42;98598.53;5016996;28;20056;-59
2022/03/21 07:15:35;;;;;;;13.02;5.03;;;;;;;4.83;36.93;98595.44;5007130;28;20078;-56
2022/03/21 07:18:01;;;;;;;22.17;7.30;;;;;;;5.31;36.68;98651.88;5005234;28;20054;-56
2022/03/21 07:20:29;;;;;;;17.40;7.03;;;;;;;5.43;36.55;98671.47;5010030;28;20515;-56
2022/03/21 07:22:58;;;;;;;12.07;4.25;;;;;;;4.51;36.30;98511.06;5011811;28;20046;-57
2022/03/21 07:25:25;;;;;;;12.77;4.88;;;;;;;5.06;36.40;98583.59;5018768;28;20538;-63
2022/03/21 07:27:52;;;;;;;14.38;6.70;;;;;;;5.11;36.30;98594.47;5021203;28;20060;-61
2022/03/21 07:30:19;;;;;;;10.73;5.20;;;;;;;5.71;35.51;98667.75;5023821;28;20049;-56
2022/03/21 07:32:46;;;;;;;5.82;3.03;;;;;;;5.49;35.49;98670.28;5022042;28;20053;-68
2022/03/21 07:35:14;;;;;;;7.30;2.63;;;;;;;5.12;35.68;98675.78;5012832;28;20057;-59
2022/03/21 07:37:43;;;;;;;6.75;2.83;;;;;;;5.41;35.67;98679.19;5009809;28;20424;-63
2022/03/21 07:40:11;;;;;;;10.48;4.57;;;;;;;5.20;35.88;98634.72;5023279;28;20233;-57
2022/03/21 07:42:43;;;;;;;7.45;4.22;;;;;;;5.56;35.10;98681.75;5023529;28;20053;-58
2022/03/21 07:47:56;;;;;;;7.72;3.72;;;;;;;5.60;35.24;98649.78;5006440;28;20441;-57
2022/03/21 07:50:23;;;;;;;10.45;4.35;;;;;;;5.52;35.63;98636.72;5003483;28;20061;-57
2022/03/21 07:52:52;;;;;;;8.35;3.88;;;;;;;5.77;34.51;98669.31;5020431;28;20448;-68
2022/03/21 07:55:19;;;;;;;19.42;5.15;;;;;;;4.82;34.50;98516.97;5010472;28;20054;-61
2022/03/21 07:57:46;;;;;;;10.73;3.90;;;;;;;5.99;34.88;98662.06;5003748;28;20111;-61
2022/03/21 08:00:15;;;;;;;8.10;4.53;;;;;;;5.87;34.76;98671.91;5010884;28;20077;-62
2022/03/21 08:02:43;;;;;;;10.73;4.25;;;;;;;6.03;34.05;98665.03;5023095;28;20064;-57
2022/03/21 08:05:11;;;;;;;8.07;4.20;;;;;;;5.40;34.94;98604.22;5011684;28;20129;-56
2022/03/21 08:07:37;;;;;;;11.35;4.30;;;;;;;5.84;35.03;98661.53;5003047;28;20061;-62
2022/03/21 08:10:05;;;;;;;11.82;3.70;;;;;;;5.43;34.93;98620.09;5002816;28;20088;-60
2022/03/21 08:12:42;;;;;;;9.77;3.92;;;;;;;5.60;34.66;98660.78;5003243;28;20058;-63
2022/03/21 08:15:11;;;;;;;;;;;;;;;5.85;34.23;98652.13;5003942;28;20474;-57
2022/03/21 08:17:56;;;;;;;6.68;3.20;;;;;;;5.79;34.31;98664.31;5017740;28;19925;-65
2022/03/21 08:20:26;;;;;;;7.78;4.03;;;;;;;6.09;33.77;98652.81;5021093;28;20049;-66
2022/03/21 08:22:52;;;;;;;8.25;4.07;;;;;;;5.70;33.95;98580.91;5017369;28;20528;-57
2022/03/21 08:25:22;;;;;;;10.40;4.28;;;;;;;6.20;33.59;98631.47;5017861;28;20072;-59
2022/03/21 08:27:49;;;;;;;7.38;2.90;;;;;;;5.87;32.54;98656.25;5021470;28;20045;-57
2022/03/21 08:30:17;;;;;;;10.27;4.93;;;;;;;6.23;34.64;98653.66;5004186;28;20492;-69
2022/03/21 08:32:48;;;;;;;9.38;4.18;;;;;;;6.26;33.85;98658.56;5015521;28;20064;-69
2022/03/21 08:35:19;;;;;;;8.65;4.07;;;;;;;6.24;34.71;98660.00;5002369;28;20369;-60
2022/03/21 08:37:47;;;;;;;9.35;3.90;;;;;;;6.12;34.23;98664.06;5009030;28;20065;-61
2022/03/21 08:40:14;;;;;;;11.75;3.97;;;;;;;5.84;34.07;98601.03;5010321;28;20050;-67
2022/03/21 08:42:41;;;;;;;10.45;4.63;;;;;;;6.28;33.84;98639.81;5005005;28;20418;-60
2022/03/21 08:45:09;;;;;;;12.18;4.50;;;;;;;6.10;33.66;98582.97;5005079;28;20056;-58
2022/03/21 08:47:37;;;;;;;9.35;4.80;;;;;;;7.00;33.23;98658.19;5005149;28;20050;-67
2022/03/21 08:50:05;;;;;;;14.45;4.68;;;;;;;6.57;32.90;98648.63;5006580;28;20428;-56
2022/03/21 08:52:32;;;;;;;10.55;4.75;;;;;;;6.51;33.54;98649.84;5006952;28;20061;-66
2022/03/21 08:54:59;;;;;;;14.55;5.50;;;;;;;6.69;33.71;98650.84;5008474;28;20102;-58
2022/03/21 08:57:26;;;;;;;8.27;4.25;;;;;;;6.39;33.58;98580.72;5008842;28;20046;-68
2022/03/21 08:59:52;;;;;;;12.65;5.57;;;;;;;6.97;33.11;98658.81;5015178;28;20050;-66
2022/03/21 09:02:20;;;;;;;9.05;3.90;;;;;;;7.24;33.24;98641.44;5026148;28;20063;-65
2022/03/21 09:04:47;;;;;;;8.13;3.90;;;;;;;7.29;33.52;98644.88;5025234;28;20054;-56
2022/03/21 09:07:14;;;;;;;11.48;5.32;;;;;;;6.99;33.20;98568.41;5022675;28;20064;-59
2022/03/21 09:09:41;;;;;;;6.72;3.47;;;;;;;7.16;33.15;98639.41;5023905;28;20432;-62
2022/03/21 09:12:09;;;;;;;12.27;4.90;;;;;;;6.94;32.51;98609.84;5024611;28;20079;-66
2022/03/21 09:14:36;;;;;;;15.55;5.22;;;;;;;6.99;33.15;98618.00;5016200;28;20443;-64
2022/03/21 09:17:04;;;;;;;10.50;5.97;;;;;;;6.64;33.08;98554.63;5010952;28;20055;-58
2022/03/21 09:19:30;;;;;;;11.82;5.60;;;;;;;7.34;33.68;98636.50;5019433;28;20049;-61
2022/03/21 09:21:58;;;;;;;12.30;5.45;;;;;;;7.29;33.20;98631.09;5026265;28;20515;-63
2022/03/21 09:24:25;;;;;;;6.18;3.38;;;;;;;7.00;33.36;98577.50;5016249;28;20068;-65
2022/03/21 09:26:52;;;;;;;10.20;5.05;;;;;;;7.45;33.54;98615.84;5005203;28;20060;-62
2022/03/21 09:29:19;;;;;;;15.05;5.45;;;;;;;6.47;33.59;98560.72;5004166;28;20045;-57
2022/03/21 09:31:47;;;;;;;13.90;6.97;;;;;;;7.08;34.01;98621.66;5003768;28;20053;-57
2022/03/21 09:34:16;;;;;;;17.75;6.65;;;;;;;7.41;33.71;98614.81;5003964;28;20505;-66
2022/03/21 09:36:44;;;;;;;16.05;6.18;;;;;;;7.47;32.52;98619.09;5003954;28;20104;-67
2022/03/21 09:39:12;;;;;;;10.50;5.35;;;;;;;7.46;32.69;98595.41;5003784;28;20050;-66
2022/03/21 09:41:39;;;;;;;16.15;5.85;;;;;;;7.77;33.28;98605.69;5002754;28;20134;-57
2022/03/21 09:44:09;;;;;;;14.38;5.88;;;;;;;7.91;31.43;98600.91;5005811;28;20053;-65
2022/03/21 09:46:39;;;;;;;9.98;5.53;;;;;;;7.97;31.75;98599.66;5006235;28;20129;-57
2022/03/21 09:49:09;;;;;;;8.57;4.60;;;;;;;7.92;32.39;98570.25;5004883;28;20070;-68
2022/03/21 09:51:36;;;;;;;15.73;5.47;;;;;;;7.99;32.95;98602.91;5004987;28;20483;-68
2022/03/21 09:54:03;;;;;;;12.70;5.90;;;;;;;7.84;32.13;98572.97;5004053;28;20073;-66
2022/03/21 09:56:30;;;;;;;11.70;6.05;;;;;;;8.25;32.65;98576.31;5003971;28;20130;-57
2022/03/21 09:59:00;;;;;;;11.30;5.35;;;;;;;8.23;32.60;98570.28;5005284;28;20054;-68
2022/03/21 10:01:32;;;;;;;9.02;4.68;;;;;;;8.32;32.44;98579.41;5005175;28;20038;-57
2022/03/21 10:04:00;;;;;;;13.68;6.80;;;;;;;7.66;32.80;98545.28;5013853;28;20057;-57
2022/03/21 10:06:35;;;;;;;10.85;4.65;;;;;;;8.30;32.27;98595.50;5005037;28;20502;-57
2022/03/21 10:09:19;;;;;;;11.52;6.15;;;;;;;8.53;31.61;98580.47;5005105;28;20861;-69
2022/03/21 10:11:54;;;;;;;8.75;5.30;;;;;;;8.57;32.71;98559.34;5005614;28;20894;-62
2022/03/21 10:14:26;;;;;;;13.52;6.22;;;;;;;8.78;31.89;98565.94;5005058;28;20064;-57
2022/03/21 10:17:11;;;;;;;8.00;3.85;;;;;;;8.48;32.69;98570.41;5006984;28;20046;-55
2022/03/21 10:19:52;;;;;;;10.95;5.70;;;;;;;8.29;32.44;98563.50;5014201;28;20057;-57
2022/03/21 10:22:21;;;;;;;15.25;5.60;;;;;;;8.61;33.25;98558.44;5004883;28;20046;-56
2022/03/21 10:24:49;;;;;;;6.65;3.42;;;;;;;8.58;32.17;98555.50;5010575;28;20423;-57
2022/03/21 10:27:46;;;;;;;14.82;5.40;;;;;;;8.41;32.42;98569.25;5024703;28;20064;-56
2022/03/21 10:30:16;;;;;;;11.80;5.20;;;;;;;8.16;31.28;98506.41;5026715;28;20064;-60
2022/03/21 10:32:52;;;;;;;14.13;5.78;;;;;;;8.14;31.38;98450.72;5022429;28;20080;-70
2022/03/21 10:35:22;;;;;;;8.02;4.28;;;;;;;8.57;31.38;98549.13;5002898;28;20064;-55
2022/03/21 10:37:52;;;;;;;10.38;5.53;;;;;;;8.34;31.03;98555.06;5002974;28;20554;-62
2022/03/21 10:40:30;;;;;;;12.13;4.97;;;;;;;7.91;31.57;98567.81;5004133;28;20753;-56
2022/03/21 10:43:04;;;;;;;26.23;9.90;;;;;;;8.48;30.99;98500.53;5006407;28;20387;-56
2022/03/21 10:45:53;;;;;;;5.10;3.17;;;;;;;8.31;30.84;98550.19;5015593;28;20041;-56
2022/03/21 10:48:24;;;;;;;19.15;7.90;;;;;;;8.89;29.70;98559.78;5003980;28;20543;-57
2022/03/21 10:50:53;;;;;;;16.60;7.53;;;;;;;8.91;29.35;98504.19;5002903;28;20058;-57
2022/03/21 10:53:27;;;;;;;7.78;3.92;;;;;;;8.95;30.78;98552.13;5004786;28;20402;-57
2022/03/21 10:55:57;;;;;;;5.90;2.85;;;;;;;9.19;30.63;98541.44;5008040;28;20087;-58
2022/03/21 10:58:39;;;;;;;9.60;4.60;;;;;;;9.46;31.19;98541.09;5022840;28;20059;-63
2022/03/21 11:01:27;;;;;;;10.48;4.32;;;;;;;6.29;30.93;98055.41;5023255;28;20051;-67
2022/03/21 11:04:00;;;;;;;15.00;6.72;;;;;;;9.20;30.57;98540.28;5015100;28;20068;-56
2022/03/21 11:06:27;;;;;;;9.65;4.30;;;;;;;9.20;31.26;98540.28;5014556;28;20108;-58
2022/03/21 11:08:55;;;;;;;8.73;4.88;;;;;;;7.90;31.00;98400.66;5012531;28;20142;-55
2022/03/21 11:11:22;;;;;;;10.50;5.90;;;;;;;8.35;30.76;98474.69;5018053;28;20068;-56
2022/03/21 11:13:50;;;;;;;7.50;3.90;;;;;;;8.78;30.36;98524.47;5007840;28;20489;-56
2022/03/21 11:16:18;;;;;;;8.02;3.65;;;;;;;8.62;29.97;98462.53;5009308;28;20053;-70
2022/03/21 11:18:46;;;;;;;3.53;2.22;;;;;;;8.21;30.86;98503.50;5006693;28;20061;-62
2022/03/21 11:21:18;;;;;;;11.30;4.70;;;;;;;8.45;30.95;98523.28;4961160;28;20140;-66
2022/03/21 11:23:46;;;;;;;9.80;5.03;;;;;;;8.43;30.95;98450.97;5022000;28;20069;-57
2022/03/21 11:26:30;;;;;;;10.20;4.75;;;;;;;8.91;30.40;98510.53;5005470;28;20588;-58
2022/03/21 11:29:15;;;;;;;8.05;4.38;;;;;;;9.21;29.97;98523.38;5003902;28;20061;-56
2022/03/21 11:32:12;;;;;;;8.10;4.25;;;;;;;8.81;29.59;98463.88;5003723;28;20827;-65
2022/03/21 11:34:57;;;;;;;7.90;4.10;;;;;;;9.30;31.23;98509.56;5003515;28;20425;-59
2022/03/21 11:37:31;;;;;;;10.25;4.65;;;;;;;9.30;29.36;98506.78;5003609;28;20057;-65
2022/03/21 11:40:27;;;;;;;11.27;6.10;;;;;;;9.34;30.42;98507.78;5003349;28;20053;-57
2022/03/21 11:43:14;;;;;;;9.07;3.75;;;;;;;8.68;31.02;98488.88;5003629;28;20137;-67
2022/03/21 11:45:40;;;;;;;5.40;3.17;;;;;;;8.39;31.27;98450.00;5001750;28;20053;-64
2022/03/21 11:48:22;;;;;;;10.35;5.20;;;;;;;8.43;30.66;98508.97;5003640;28;20054;-65
2022/03/21 11:51:10;;;;;;;7.30;4.00;;;;;;;8.86;31.57;98501.59;5002957;28;20054;-67
2022/03/21 11:53:49;;;;;;;10.00;4.85;;;;;;;9.02;29.83;98495.28;5002473;28;20517;-58
2022/03/21 11:56:17;;;;;;;14.50;6.22;;;;;;;9.26;30.89;98489.25;5003514;28;20093;-59
2022/03/21 11:58:46;;;;;;;8.27;4.20;;;;;;;9.10;29.87;98439.13;5002506;28;20054;-66
2022/03/21 12:01:17;;;;;;;11.20;4.70;;;;;;;9.23;30.25;98490.69;5003612;28;20077;-66
2022/03/21 12:03:43;;;;;;;9.80;4.97;;;;;;;9.28;30.68;98459.28;5003724;28;20100;-66